Time;durP1;ratioP1;P1;durP2;ratioP2;P2;SDS_P1;SDS_P2;PMS_P1;PMS_P2;Temp;Humidity;BMP_temperature;BMP_pressure;BME280_temperature;BME280_humidity;BME280_pressure;Samples;Min_cycle;Max_cycle;Signal;HPM_P1;HPM_P2
2023/04/04 00:01:59;;;;;;;10.87;3.33;;;-0.30;99.90;;;;;;5023604;28;20202;-68
2023/04/04 00:04:26;;;;;;;5.07;1.87;;;-0.30;99.90;;;;;;5020104;28;20205;-68
2023/04/04 00:06:52;;;;;;;4.47;2.07;;;-0.40;99.90;;;;;;5022671;28;20201;-68
2023/04/04 00:09:18;;;;;;;3.73;1.90;;;-0.40;99.90;;;;;;5020578;28;20237;-69
2023/04/04 00:11:44;;;;;;;3.27;1.70;;;-0.40;99.90;;;;;;5018426;28;20282;-69
2023/04/04 00:14:10;;;;;;;6.47;2.20;;;-0.40;99.90;;;;;;5019426;28;20205;-69
2023/04/04 00:16:35;;;;;;;5.40;2.53;;;-0.30;99.90;;;;;;5019527;28;20206;-69
2023/04/04 00:19:01;;;;;;;3.00;2.23;;;-0.40;99.90;;;;;;5019156;28;20225;-69
2023/04/04 00:21:27;;;;;;;7.50;2.33;;;-0.40;99.90;;;;;;5018903;28;20263;-69
2023/04/04 00:23:53;;;;;;;7.17;2.27;;;-0.40;99.90;;;;;;5017706;28;20206;-68
2023/04/04 00:26:20;;;;;;;3.70;2.40;;;-0.40;99.90;;;;;;5018805;28;20670;-68
2023/04/04 00:28:46;;;;;;;3.43;2.13;;;-0.40;99.90;;;;;;5022857;28;20198;-68
2023/04/04 00:31:11;;;;;;;5.23;2.27;;;-0.40;99.90;;;;;;5018916;28;20311;-68
2023/04/04 00:33:37;;;;;;;2.97;2.10;;;-0.40;99.90;;;;;;5019086;28;20222;-69
2023/04/04 00:36:03;;;;;;;5.17;2.83;;;-0.50;99.90;;;;;;5016995;28;20548;-69
2023/04/04 00:38:29;;;;;;;2.87;2.17;;;-0.50;99.90;;;;;;5017928;28;20229;-67
2023/04/04 00:40:55;;;;;;;5.60;2.50;;;-0.50;99.90;;;;;;5018847;28;20206;-68
2023/04/04 00:43:21;;;;;;;5.17;2.23;;;-0.50;99.90;;;;;;5021444;28;20202;-67
2023/04/04 00:45:48;;;;;;;5.30;2.87;;;-0.50;99.90;;;;;;5018416;28;20220;-67
2023/04/04 00:48:14;;;;;;;3.87;1.93;;;-0.50;99.90;;;;;;5017605;28;20201;-68
2023/04/04 00:50:39;;;;;;;2.70;2.23;;;-0.50;99.90;;;;;;5018764;28;20287;-68
2023/04/04 00:53:05;;;;;;;5.07;2.63;;;-0.50;99.90;;;;;;5018910;28;20206;-68
2023/04/04 00:55:31;;;;;;;4.17;2.27;;;-0.50;99.90;;;;;;5023483;28;20684;-68
2023/04/04 00:57:57;;;;;;;5.43;3.10;;;-0.50;99.90;;;;;;5023089;28;20467;-68
2023/04/04 01:00:23;;;;;;;4.77;2.50;;;-0.60;99.90;;;;;;5018055;28;20222;-67
2023/04/04 01:02:49;;;;;;;4.60;2.37;;;-0.70;99.90;;;;;;5019497;28;20260;-67
2023/04/04 01:05:15;;;;;;;4.83;2.60;;;-0.70;99.90;;;;;;5018524;28;20229;-68
2023/04/04 01:07:41;;;;;;;2.47;2.20;;;-0.80;99.90;;;;;;5018274;28;20226;-68
2023/04/04 01:10:07;;;;;;;5.67;2.40;;;-0.80;99.90;;;;;;5018564;28;20236;-68
2023/04/04 01:12:34;;;;;;;4.90;2.27;;;-0.80;99.90;;;;;;5012526;28;20206;-68
2023/04/04 01:14:59;;;;;;;4.47;2.40;;;-0.80;99.90;;;;;;5020129;28;20248;-68
2023/04/04 01:17:26;;;;;;;4.23;1.83;;;-0.80;99.90;;;;;;5018184;28;20242;-68
2023/04/04 01:20:12;;;;;;;4.33;2.10;;;-0.80;99.90;;;;;;5020405;28;20212;-68
2023/04/04 01:22:39;;;;;;;3.90;2.00;;;-0.80;99.90;;;;;;5018401;28;20661;-67
2023/04/04 01:25:05;;;;;;;5.70;2.00;;;-0.90;99.90;;;;;;5022932;28;20756;-68
2023/04/04 01:27:31;;;;;;;7.13;2.00;;;-0.90;99.90;;;;;;5019607;28;20267;-68
2023/04/04 01:29:56;;;;;;;3.47;2.63;;;-0.90;99.90;;;;;;5021214;28;20705;-69
2023/04/04 01:32:36;;;;;;;2.67;1.97;;;-0.90;99.90;;;;;;5017926;28;20293;-68
2023/04/04 01:35:32;;;;;;;2.77;1.87;;;-0.90;99.90;;;;;;5017663;28;20202;-67
2023/04/04 01:38:19;;;;;;;4.23;1.93;;;-0.80;99.90;;;;;;5016232;28;20206;-67
2023/04/04 01:40:49;;;;;;;4.17;2.23;;;-0.90;99.90;;;;;;5017729;28;20575;-73
2023/04/04 01:43:15;;;;;;;2.40;1.80;;;-0.90;99.90;;;;;;5013741;28;20225;-68
2023/04/04 01:45:41;;;;;;;3.83;1.80;;;-0.90;99.90;;;;;;5016704;28;20371;-68
2023/04/04 01:48:07;;;;;;;5.43;2.17;;;-1.00;99.90;;;;;;5017947;28;20200;-68
2023/04/04 01:50:33;;;;;;;2.93;2.00;;;-1.00;99.90;;;;;;5018378;28;20267;-67
2023/04/04 01:52:58;;;;;;;2.17;1.63;;;-1.00;99.90;;;;;;5017473;28;20628;-69
2023/04/04 01:55:24;;;;;;;9.27;1.43;;;-1.00;99.90;;;;;;5014752;28;20256;-70
2023/04/04 01:57:50;;;;;;;5.50;2.60;;;-1.10;99.90;;;;;;5015585;28;20208;-67
2023/04/04 02:00:16;;;;;;;9.50;3.27;;;-1.00;99.90;;;;;;5016977;28;20214;-67
2023/04/04 02:02:41;;;;;;;3.37;2.30;;;-1.10;99.90;;;;;;5018043;28;20788;-66
2023/04/04 02:05:07;;;;;;;4.97;2.47;;;-1.00;99.90;;;;;;5021256;28;20225;-68
2023/04/04 02:07:33;;;;;;;5.73;2.57;;;-1.10;99.90;;;;;;5014265;28;20190;-67
2023/04/04 02:09:58;;;;;;;9.00;4.90;;;-1.10;99.90;;;;;;5017360;28;20686;-68
2023/04/04 02:12:24;;;;;;;4.93;3.07;;;-1.10;99.90;;;;;;5017508;28;20232;-67
2023/04/04 02:14:49;;;;;;;3.13;1.97;;;-1.10;99.90;;;;;;5015919;28;21057;-67
2023/04/04 02:17:15;;;;;;;2.63;1.93;;;-1.10;99.90;;;;;;5010118;28;20206;-67
2023/04/04 02:19:40;;;;;;;4.40;2.10;;;-1.10;99.90;;;;;;5014113;28;20213;-67
2023/04/04 02:22:06;;;;;;;8.10;4.00;;;-1.10;99.90;;;;;;5015025;28;20662;-67
2023/04/04 02:24:31;;;;;;;4.93;2.83;;;-1.20;99.90;;;;;;5017595;28;20200;-68
2023/04/04 02:26:57;;;;;;;7.50;2.37;;;-1.20;99.90;;;;;;5017179;28;20838;-68
2023/04/04 02:29:22;;;;;;;9.07;2.40;;;-1.20;99.90;;;;;;5016908;28;20207;-68
2023/04/04 02:31:48;;;;;;;4.03;2.27;;;-1.30;99.90;;;;;;5018432;28;20213;-67
2023/04/04 02:34:13;;;;;;;5.67;2.60;;;-1.30;99.90;;;;;;5015853;28;20265;-68
2023/04/04 02:36:39;;;;;;;6.60;3.17;;;-1.30;99.90;;;;;;5017890;28;20209;-68
2023/04/04 02:39:04;;;;;;;4.13;2.60;;;-1.30;99.90;;;;;;5019678;28;20690;-68
2023/04/04 02:41:31;;;;;;;5.33;2.37;;;-1.30;99.90;;;;;;5015949;28;20596;-68
2023/04/04 02:43:56;;;;;;;4.40;2.70;;;-1.30;99.90;;;;;;5013214;28;20702;-69
2023/04/04 02:46:21;;;;;;;6.53;3.33;;;-1.30;99.90;;;;;;5014913;28;20255;-68
2023/04/04 02:48:47;;;;;;;8.17;2.73;;;-1.30;99.90;;;;;;5020939;28;20575;-68
2023/04/04 02:51:13;;;;;;;4.07;2.93;;;-1.30;99.90;;;;;;5016753;28;20287;-67
2023/04/04 02:53:38;;;;;;;5.13;3.00;;;-1.30;99.90;;;;;;5017107;28;20192;-68
2023/04/04 02:56:04;;;;;;;5.03;3.27;;;-1.40;99.90;;;;;;5016520;28;20229;-69
2023/04/04 02:58:33;;;;;;;3.80;2.50;;;-1.40;99.90;;;;;;5016694;28;20213;-68
2023/04/04 03:00:58;;;;;;;7.17;3.30;;;-1.40;99.90;;;;;;5016138;28;20631;-69
2023/04/04 03:03:24;;;;;;;5.47;2.90;;;-1.40;99.90;;;;;;5016272;28;20198;-68
2023/04/04 03:05:50;;;;;;;9.33;2.57;;;-1.40;99.90;;;;;;5016602;28;20296;-67
2023/04/04 03:08:16;;;;;;;5.27;2.70;;;-1.40;99.90;;;;;;5016806;28;20200;-68
2023/04/04 03:10:41;;;;;;;4.43;2.50;;;-1.40;99.90;;;;;;5016708;28;20205;-67
2023/04/04 03:13:07;;;;;;;5.27;2.60;;;-1.40;99.90;;;;;;5014716;28;20289;-67
2023/04/04 03:15:33;;;;;;;6.77;2.53;;;-1.40;99.90;;;;;;5016343;28;20673;-66
2023/04/04 03:17:59;;;;;;;4.50;2.30;;;-1.50;99.90;;;;;;5012842;28;20686;-68
2023/04/04 03:20:25;;;;;;;7.63;2.50;;;-1.40;99.90;;;;;;5016472;28;20986;-67
2023/04/04 03:22:51;;;;;;;5.60;2.80;;;-1.40;99.90;;;;;;5016602;28;20252;-69
2023/04/04 03:25:17;;;;;;;3.77;2.47;;;-1.50;99.90;;;;;;5014278;28;20209;-68
2023/04/04 03:27:42;;;;;;;6.70;2.37;;;-1.50;99.90;;;;;;5014929;28;20201;-68
2023/04/04 03:30:08;;;;;;;6.10;2.60;;;-1.50;99.90;;;;;;5014844;28;20202;-69
2023/04/04 03:32:35;;;;;;;5.60;2.53;;;-1.60;99.90;;;;;;5016435;28;20846;-69
2023/04/04 03:35:01;;;;;;;6.03;2.97;;;-1.60;99.90;;;;;;5014091;28;20200;-68
2023/04/04 03:37:29;;;;;;;4.73;2.17;;;-1.60;99.90;;;;;;5020722;28;21107;-69
2023/04/04 03:39:54;;;;;;;7.17;3.03;;;-1.70;99.90;;;;;;5016038;28;20229;-68
2023/04/04 03:42:20;;;;;;;7.07;2.83;;;-1.70;99.90;;;;;;5016092;28;20198;-67
2023/04/04 03:44:46;;;;;;;3.37;2.70;;;-1.70;99.90;;;;;;5015780;28;20335;-67
2023/04/04 03:47:12;;;;;;;2.53;1.93;;;-1.70;99.90;;;;;;5015984;28;20695;-67
2023/04/04 03:49:38;;;;;;;6.53;2.17;;;-1.70;99.90;;;;;;5014893;28;20196;-67
2023/04/04 03:52:04;;;;;;;4.50;3.23;;;-1.70;99.90;;;;;;5015802;28;20209;-67
2023/04/04 03:54:29;;;;;;;4.67;2.60;;;-1.70;99.90;;;;;;5016087;28;20196;-68
2023/04/04 03:56:55;;;;;;;6.90;2.57;;;-1.70;99.90;;;;;;5015881;28;20634;-71
2023/04/04 03:59:21;;;;;;;4.20;2.40;;;-1.70;99.90;;;;;;5013807;28;20255;-68
2023/04/04 04:01:47;;;;;;;10.63;3.07;;;-1.70;99.90;;;;;;5015950;28;20679;-68
2023/04/04 04:04:12;;;;;;;5.57;2.77;;;-1.70;99.90;;;;;;5015927;28;20212;-68
2023/04/04 04:06:38;;;;;;;2.37;2.17;;;-1.70;99.90;;;;;;5015999;28;20886;-69
2023/04/04 04:09:03;;;;;;;8.77;3.40;;;-1.70;99.90;;;;;;5015608;28;20208;-69
2023/04/04 04:11:29;;;;;;;3.83;2.63;;;-1.80;99.90;;;;;;5016244;28;20208;-67
2023/04/04 04:13:55;;;;;;;9.67;3.10;;;-1.80;99.90;;;;;;5009229;28;20446;-68
2023/04/04 04:16:21;;;;;;;4.23;2.50;;;-1.80;99.90;;;;;;5015340;28;20547;-68
2023/04/04 04:18:47;;;;;;;5.67;2.40;;;-1.80;99.90;;;;;;5016104;28;20350;-69
2023/04/04 04:21:12;;;;;;;7.80;2.77;;;-1.80;99.90;;;;;;5015760;28;20560;-69
2023/04/04 04:23:38;;;;;;;8.27;2.73;;;-1.80;99.90;;;;;;5015973;28;20194;-69
2023/04/04 04:26:04;;;;;;;5.30;2.20;;;-1.70;99.90;;;;;;5014087;28;20218;-69
2023/04/04 04:28:29;;;;;;;6.20;2.10;;;-1.70;99.90;;;;;;5016188;28;20213;-69
2023/04/04 04:30:55;;;;;;;7.77;3.87;;;-1.80;99.90;;;;;;5017054;28;20228;-70
2023/04/04 04:33:26;;;;;;;7.10;2.80;;;-1.80;99.90;;;;;;5018925;28;20212;-69
2023/04/04 04:35:52;;;;;;;5.83;2.93;;;-1.80;99.90;;;;;;5017041;28;20330;-69
2023/04/04 04:38:18;;;;;;;9.17;2.90;;;-1.90;99.90;;;;;;5018960;28;20205;-69
2023/04/04 04:40:44;;;;;;;9.00;3.97;;;-1.90;99.90;;;;;;5023197;28;20369;-69
2023/04/04 04:43:10;;;;;;;8.77;2.63;;;-1.90;99.90;;;;;;5019300;28;20283;-67
2023/04/04 04:45:35;;;;;;;7.73;2.90;;;-1.90;99.90;;;;;;5014515;28;20948;-68
2023/04/04 04:48:00;;;;;;;7.03;3.90;;;-1.90;99.90;;;;;;5019429;28;20198;-67
2023/04/04 04:50:26;;;;;;;5.03;3.20;;;-1.80;99.90;;;;;;5019021;28;20200;-68
2023/04/04 04:52:51;;;;;;;4.37;2.47;;;-1.80;99.90;;;;;;5019057;28;20199;-68
2023/04/04 04:55:17;;;;;;;5.37;2.93;;;-1.80;99.90;;;;;;5019137;28;20310;-69
2023/04/04 04:57:43;;;;;;;5.03;2.90;;;-1.80;99.90;;;;;;5018600;28;20204;-67
2023/04/04 05:00:09;;;;;;;6.37;3.40;;;-1.80;99.90;;;;;;5017570;28;20216;-68
2023/04/04 05:02:34;;;;;;;4.67;3.13;;;-1.80;99.90;;;;;;5018654;28;20778;-68
2023/04/04 05:05:00;;;;;;;5.20;2.87;;;-1.70;99.90;;;;;;5018631;28;20251;-69
2023/04/04 05:07:26;;;;;;;6.37;3.90;;;-1.80;99.90;;;;;;5019522;28;20201;-66
2023/04/04 05:09:51;;;;;;;7.53;3.73;;;-1.70;99.90;;;;;;5017068;28;20197;-66
2023/04/04 05:12:17;;;;;;;11.57;3.07;;;-1.70;99.90;;;;;;5023424;28;20695;-67
2023/04/04 05:14:43;;;;;;;7.37;4.53;;;-1.70;99.90;;;;;;5019156;28;20200;-67
2023/04/04 05:17:09;;;;;;;11.53;3.03;;;-1.70;99.90;;;;;;5018490;28;20644;-68
2023/04/04 05:19:34;;;;;;;3.57;3.00;;;-1.70;99.90;;;;;;5018318;28;20219;-68
2023/04/04 05:22:00;;;;;;;7.73;3.30;;;-1.70;99.90;;;;;;5017983;28;20558;-68
2023/04/04 05:24:26;;;;;;;4.10;2.57;;;-1.70;99.90;;;;;;5016576;28;20209;-69
2023/04/04 05:26:51;;;;;;;9.03;3.43;;;-1.70;99.90;;;;;;5018432;28;20766;-68
2023/04/04 05:29:17;;;;;;;5.03;3.47;;;-1.60;99.90;;;;;;5017775;28;20235;-67
2023/04/04 05:31:42;;;;;;;7.03;3.10;;;-1.60;99.90;;;;;;5018524;28;20275;-66
2023/04/04 05:34:08;;;;;;;7.27;2.90;;;-1.50;99.90;;;;;;5018146;28;20204;-68
2023/04/04 05:36:35;;;;;;;4.10;2.90;;;-1.50;99.90;;;;;;5016177;28;20209;-68
2023/04/04 05:39:01;;;;;;;9.77;3.10;;;-1.40;99.90;;;;;;5018640;28;20535;-69
2023/04/04 05:41:26;;;;;;;10.17;3.73;;;-1.30;99.90;;;;;;5017897;28;20697;-69
2023/04/04 05:43:52;;;;;;;9.13;5.03;;;-1.30;99.90;;;;;;5017549;28;20192;-68
2023/04/04 05:46:17;;;;;;;8.77;3.27;;;-1.20;99.90;;;;;;5017890;28;20259;-68
2023/04/04 05:48:43;;;;;;;5.50;3.07;;;-1.20;99.90;;;;;;5016107;28;20196;-69
2023/04/04 05:51:09;;;;;;;8.10;3.30;;;-1.20;99.90;;;;;;5017725;28;20197;-68
2023/04/04 05:53:34;;;;;;;5.73;2.77;;;-1.10;99.90;;;;;;5018085;28;20695;-68
2023/04/04 05:56:00;;;;;;;6.43;3.20;;;-0.90;99.90;;;;;;5017665;28;20202;-69
2023/04/04 05:58:26;;;;;;;5.17;2.30;;;-0.90;99.90;;;;;;5018654;28;20194;-68
2023/04/04 06:00:51;;;;;;;8.13;3.17;;;-0.80;99.90;;;;;;5017944;28;20889;-68
2023/04/04 06:03:17;;;;;;;10.40;3.90;;;-0.80;99.90;;;;;;5016150;28;20204;-69
2023/04/04 06:05:45;;;;;;;8.77;2.93;;;-0.80;99.90;;;;;;5017753;28;20280;-68
2023/04/04 06:08:11;;;;;;;7.83;4.50;;;-0.70;99.90;;;;;;5017559;28;20205;-69
2023/04/04 06:10:36;;;;;;;7.60;3.97;;;-0.60;99.90;;;;;;5020444;28;20221;-68
2023/04/04 06:13:02;;;;;;;6.13;3.07;;;-0.50;99.90;;;;;;5019034;28;20201;-68
2023/04/04 06:15:27;;;;;;;7.40;3.00;;;-0.40;99.90;;;;;;5015515;28;20913;-67
2023/04/04 06:17:53;;;;;;;6.63;3.20;;;-0.30;99.90;;;;;;5017548;28;20686;-67
2023/04/04 06:20:20;;;;;;;6.07;3.40;;;-0.20;99.90;;;;;;5012760;28;20228;-68
2023/04/04 06:22:45;;;;;;;7.27;3.67;;;0.00;99.90;;;;;;5014704;28;20213;-68
2023/04/04 06:25:13;;;;;;;3.70;3.10;;;0.10;99.90;;;;;;5016825;28;20202;-69
2023/04/04 06:27:39;;;;;;;5.03;3.03;;;0.10;99.90;;;;;;5016478;28;20272;-68
2023/04/04 06:30:05;;;;;;;5.80;2.90;;;0.10;99.90;;;;;;5031624;28;20210;-69
2023/04/04 06:32:31;;;;;;;4.17;2.17;;;0.20;99.90;;;;;;5016846;28;20204;-68
2023/04/04 06:34:56;;;;;;;5.90;3.33;;;0.20;99.90;;;;;;5016586;28;20208;-68
2023/04/04 06:37:22;;;;;;;5.37;3.47;;;0.40;99.90;;;;;;5016692;28;20205;-68
2023/04/04 06:39:47;;;;;;;10.13;3.30;;;0.50;99.90;;;;;;5016522;28;20209;-69
2023/04/04 06:42:13;;;;;;;6.47;3.00;;;0.60;99.90;;;;;;5014830;28;20343;-68
2023/04/04 06:44:38;;;;;;;4.53;2.70;;;0.50;99.90;;;;;;5016535;28;20199;-69
2023/04/04 06:47:04;;;;;;;5.50;3.47;;;0.60;99.90;;;;;;5016376;28;20243;-68
2023/04/04 06:49:29;;;;;;;5.03;3.00;;;0.70;99.90;;;;;;5016214;28;20635;-68
2023/04/04 06:51:55;;;;;;;3.70;2.53;;;1.00;99.90;;;;;;5017145;28;20399;-68
2023/04/04 06:54:20;;;;;;;3.70;3.23;;;1.20;99.90;;;;;;5016759;28;20221;-68
2023/04/04 06:56:46;;;;;;;2.20;2.00;;;1.30;99.90;;;;;;5014700;28;20209;-69
2023/04/04 06:59:11;;;;;;;6.10;2.37;;;1.30;99.90;;;;;;5016367;28;20226;-68
2023/04/04 07:01:37;;;;;;;3.67;2.80;;;1.30;99.90;;;;;;5016613;28;20570;-69
2023/04/04 07:04:03;;;;;;;3.80;1.80;;;1.40;99.90;;;;;;5016637;28;20207;-69
2023/04/04 07:06:28;;;;;;;4.90;2.50;;;1.50;99.90;;;;;;5016191;28;20218;-69
2023/04/04 07:08:54;;;;;;;4.20;2.80;;;1.60;99.90;;;;;;5011946;28;20202;-68
2023/04/04 07:11:22;;;;;;;6.97;2.43;;;1.90;99.90;;;;;;5014466;28;20196;-76
2023/04/04 07:13:48;;;;;;;7.70;2.53;;;2.00;99.90;;;;;;5012916;28;20210;-77
2023/04/04 07:16:14;;;;;;;4.10;2.20;;;2.00;99.90;;;;;;5016007;28;20254;-77
2023/04/04 07:18:40;;;;;;;4.33;2.23;;;2.00;99.90;;;;;;5014818;28;20217;-74
2023/04/04 07:21:05;;;;;;;5.07;2.17;;;2.00;99.90;;;;;;5012710;28;20638;-76
2023/04/04 07:23:31;;;;;;;8.53;2.93;;;1.90;99.90;;;;;;5013363;28;20206;-66
2023/04/04 07:25:56;;;;;;;3.27;2.13;;;2.00;99.90;;;;;;5015115;28;20227;-69
2023/04/04 07:28:22;;;;;;;5.80;2.30;;;2.30;99.90;;;;;;5015864;28;20198;-68
2023/04/04 07:30:47;;;;;;;5.07;2.63;;;2.30;99.90;;;;;;5015932;28;20203;-68
2023/04/04 07:33:13;;;;;;;3.50;1.87;;;2.40;99.90;;;;;;5013656;28;20272;-69
2023/04/04 07:35:38;;;;;;;3.70;2.20;;;2.60;99.90;;;;;;5016033;28;20210;-67
2023/04/04 07:38:04;;;;;;;3.93;2.20;;;2.60;99.90;;;;;;5015308;28;20797;-68
2023/04/04 07:40:30;;;;;;;5.97;2.67;;;2.70;99.90;;;;;;5017091;28;20697;-70
2023/04/04 07:42:56;;;;;;;6.73;3.47;;;2.70;99.90;;;;;;5015965;28;20418;-69
2023/04/04 07:45:21;;;;;;;3.47;2.37;;;2.80;99.90;;;;;;5012932;28;20915;-71
2023/04/04 07:47:47;;;;;;;2.43;1.77;;;2.90;99.90;;;;;;5015973;28;20199;-71
2023/04/04 07:50:13;;;;;;;2.63;1.40;;;2.90;99.90;;;;;;5017122;28;20226;-70
2023/04/04 07:52:40;;;;;;;3.23;1.57;;;3.00;99.90;;;;;;5021791;28;20352;-69
2023/04/04 07:55:06;;;;;;;3.10;1.50;;;3.00;99.90;;;;;;5015994;28;20590;-68
2023/04/04 07:57:32;;;;;;;6.20;1.80;;;3.10;99.90;;;;;;5013213;28;20257;-71
2023/04/04 07:59:58;;;;;;;5.60;1.97;;;2.80;99.90;;;;;;5014229;28;20218;-68
2023/04/04 08:02:24;;;;;;;3.73;1.80;;;2.90;99.90;;;;;;5015014;28;20202;-68
2023/04/04 08:04:49;;;;;;;2.97;2.07;;;3.00;99.90;;;;;;5020780;28;20287;-68
2023/04/04 08:07:15;;;;;;;3.83;2.00;;;3.10;99.90;;;;;;5019191;28;20254;-70
2023/04/04 08:09:41;;;;;;;2.37;1.53;;;3.20;99.90;;;;;;5019799;28;20249;-68
2023/04/04 08:12:06;;;;;;;2.23;1.60;;;3.40;99.90;;;;;;5013016;28;20601;-68
2023/04/04 08:14:32;;;;;;;2.10;1.90;;;3.40;99.90;;;;;;5023997;28;20203;-69
2023/04/04 08:16:58;;;;;;;1.93;1.23;;;3.40;99.90;;;;;;5017573;28;20200;-70
2023/04/04 08:19:23;;;;;;;2.00;1.40;;;3.50;99.90;;;;;;5017853;28;20554;-71
2023/04/04 08:21:49;;;;;;;1.97;1.50;;;3.60;99.90;;;;;;5018811;28;20218;-71
2023/04/04 08:24:14;;;;;;;4.33;1.93;;;3.60;99.90;;;;;;5015621;28;20222;-69
2023/04/04 08:26:40;;;;;;;2.63;1.33;;;3.60;99.90;;;;;;5016353;28;20192;-68
2023/04/04 08:29:06;;;;;;;3.17;1.20;;;3.60;99.90;;;;;;5016175;28;20200;-72
2023/04/04 08:31:33;;;;;;;1.40;1.30;;;3.50;99.90;;;;;;5019042;28;20222;-68
2023/04/04 08:34:00;;;;;;;5.33;1.30;;;3.50;99.90;;;;;;5023352;28;20207;-72
2023/04/04 08:36:25;;;;;;;4.03;2.13;;;3.60;99.90;;;;;;5016313;28;20203;-75
2023/04/04 08:38:51;;;;;;;2.30;1.80;;;3.60;99.90;;;;;;5018878;28;20195;-76
2023/04/04 08:41:16;;;;;;;3.57;1.50;;;3.50;99.90;;;;;;5018822;28;20207;-76
2023/04/04 08:43:53;;;;;;;6.23;2.70;;;3.60;99.90;;;;;;5019175;28;20250;-76
2023/04/04 08:46:20;;;;;;;3.67;1.87;;;3.70;99.90;;;;;;5016717;28;20235;-76
2023/04/04 08:48:47;;;;;;;2.67;1.60;;;3.80;99.90;;;;;;5019021;28;20704;-75
2023/04/04 08:51:14;;;;;;;6.40;1.83;;;4.00;99.90;;;;;;5018194;28;20573;-77
2023/04/04 08:53:40;;;;;;;3.23;1.57;;;4.00;99.20;;;;;;5018743;28;20773;-74
2023/04/04 08:56:06;;;;;;;3.63;1.43;;;4.00;99.90;;;;;;5016755;28;20219;-73
2023/04/04 08:58:31;;;;;;;3.87;1.57;;;4.10;99.00;;;;;;5018682;28;20576;-74
2023/04/04 09:00:57;;;;;;;2.63;1.00;;;4.30;98.20;;;;;;5018828;28;20298;-73
2023/04/04 09:03:29;;;;;;;1.23;1.13;;;4.30;97.90;;;;;;5018430;28;20203;-74
2023/04/04 09:05:55;;;;;;;2.43;0.90;;;4.50;98.40;;;;;;5016636;28;20211;-76
2023/04/04 09:08:23;;;;;;;2.33;1.40;;;4.60;95.90;;;;;;5018159;28;20212;-77
2023/04/04 09:10:50;;;;;;;4.13;1.07;;;4.70;96.30;;;;;;5018345;28;20681;-77
2023/04/04 09:13:15;;;;;;;3.83;1.27;;;5.00;96.40;;;;;;5018289;28;20203;-72
2023/04/04 09:15:45;;;;;;;3.63;2.00;;;5.40;94.50;;;;;;5018081;28;20268;-73
2023/04/04 09:18:11;;;;;;;2.00;1.47;;;5.50;94.10;;;;;;5013589;28;20694;-68
2023/04/04 09:20:41;;;;;;;1.83;1.73;;;5.70;94.00;;;;;;5013386;28;20216;-69
2023/04/04 09:23:08;;;;;;;3.10;1.60;;;5.90;94.90;;;;;;5018064;28;20203;-70
2023/04/04 09:25:35;;;;;;;2.77;1.63;;;5.90;94.20;;;;;;5017664;28;20203;-70
2023/04/04 09:28:04;;;;;;;2.83;1.53;;;5.90;94.30;;;;;;5018160;28;20207;-69
2023/04/04 09:30:32;;;;;;;1.17;1.07;;;6.30;93.50;;;;;;5016861;28;20226;-68
2023/04/04 09:33:03;;;;;;;3.30;1.90;;;6.40;92.80;;;;;;5018269;28;20214;-66
2023/04/04 09:35:31;;;;;;;3.70;1.50;;;6.60;92.10;;;;;;5017686;28;20254;-69
2023/04/04 09:37:57;;;;;;;4.53;1.60;;;6.30;91.90;;;;;;5018325;28;20207;-69
2023/04/04 09:40:25;;;;;;;1.97;1.60;;;5.90;92.10;;;;;;5017739;28;20215;-69
2023/04/04 09:42:53;;;;;;;4.57;1.70;;;5.80;91.80;;;;;;5017554;28;20245;-69
2023/04/04 09:45:19;;;;;;;2.33;1.30;;;5.60;91.40;;;;;;5017562;28;20227;-67
2023/04/04 09:47:44;;;;;;;3.00;1.17;;;5.50;91.70;;;;;;5006722;28;20200;-74
2023/04/04 09:50:21;;;;;;;1.40;1.30;;;5.40;91.60;;;;;;5018943;28;20277;-71
2023/04/04 09:52:48;;;;;;;1.30;0.97;;;5.50;90.70;;;;;;5018003;28;20257;-76
2023/04/04 09:55:14;;;;;;;2.60;1.30;;;5.50;90.40;;;;;;5016915;28;20204;-72
2023/04/04 09:57:40;;;;;;;3.60;1.50;;;5.40;91.60;;;;;;5017559;28;20568;-81
2023/04/04 10:00:10;;;;;;;1.17;1.03;;;5.40;90.20;;;;;;5021620;28;20853;-76
2023/04/04 10:02:44;;;;;;;1.40;1.20;;;5.30;90.80;;;;;;5016438;28;20233;-77
2023/04/04 10:05:10;;;;;;;2.33;1.10;;;5.50;90.70;;;;;;5013187;28;20206;-76
2023/04/04 10:07:38;;;;;;;3.67;1.93;;;5.40;90.80;;;;;;5016744;28;20203;-71
2023/04/04 10:10:05;;;;;;;1.03;0.93;;;5.80;90.30;;;;;;5016362;28;20203;-71
2023/04/04 10:12:31;;;;;;;4.47;2.77;;;6.20;90.00;;;;;;5016795;28;20207;-69
2023/04/04 10:15:01;;;;;;;2.57;1.30;;;6.40;88.70;;;;;;5018128;28;20206;-70
2023/04/04 10:17:35;;;;;;;1.10;0.97;;;6.40;88.00;;;;;;5015142;28;20295;-79
2023/04/04 10:20:05;;;;;;;2.70;0.90;;;6.60;88.80;;;;;;5016944;28;20415;-74
2023/04/04 10:22:31;;;;;;;3.03;1.30;;;7.20;89.10;;;;;;5016487;28;20238;-75
2023/04/04 10:24:58;;;;;;;1.23;1.13;;;7.70;87.10;;;;;;5015996;28;20761;-80
2023/04/04 10:27:24;;;;;;;1.97;1.20;;;7.70;82.70;;;;;;5017518;28;20203;-72
2023/04/04 10:29:50;;;;;;;3.17;2.03;;;7.40;87.40;;;;;;5016226;28;20246;-74
2023/04/04 10:32:25;;;;;;;1.83;0.90;;;7.70;87.70;;;;;;5015682;28;20569;-70
2023/04/04 10:35:06;;;;;;;3.00;1.10;;;7.60;77.30;;;;;;5014848;28;20278;-79
2023/04/04 10:37:37;;;;;;;1.03;1.00;;;7.80;76.10;;;;;;5021118;28;20553;-80
2023/04/04 10:40:14;;;;;;;4.03;1.40;;;7.80;80.20;;;;;;5014141;28;20215;-78
2023/04/04 10:42:45;;;;;;;1.93;1.83;;;8.60;78.30;;;;;;5016549;28;20207;-73
2023/04/04 10:45:13;;;;;;;2.30;1.00;;;8.70;76.30;;;;;;5020106;28;20251;-77
2023/04/04 10:47:40;;;;;;;1.87;1.17;;;8.90;76.40;;;;;;5018143;28;20275;-73
2023/04/04 10:50:09;;;;;;;2.43;1.10;;;8.70;73.30;;;;;;5020292;28;20199;-74
2023/04/04 10:52:36;;;;;;;2.63;1.40;;;8.40;72.50;;;;;;5015680;28;20215;-74
2023/04/04 10:55:05;;;;;;;1.87;1.23;;;7.90;72.00;;;;;;5015730;28;20212;-73
2023/04/04 10:57:40;;;;;;;4.93;1.30;;;7.40;73.30;;;;;;5014146;28;20215;-73
2023/04/04 11:00:25;;;;;;;1.00;0.90;;;7.20;73.70;;;;;;5012377;28;20222;-70
2023/04/04 11:02:54;;;;;;;0.97;0.97;;;6.90;72.60;;;;;;5012126;28;20712;-75
2023/04/04 11:05:33;;;;;;;1.43;1.20;;;6.90;74.70;;;;;;5015665;28;20199;-73
2023/04/04 11:08:04;;;;;;;2.70;1.43;;;7.00;73.90;;;;;;5014466;28;20891;-73
2023/04/04 11:10:40;;;;;;;3.57;1.57;;;7.20;72.80;;;;;;5013817;28;20264;-74
2023/04/04 11:13:22;;;;;;;2.70;1.30;;;8.20;74.30;;;;;;5014094;28;20715;-73
2023/04/04 11:16:14;;;;;;;1.83;1.40;;;8.80;69.40;;;;;;5016046;28;20280;-75
2023/04/04 11:18:44;;;;;;;1.97;1.20;;;9.50;64.40;;;;;;5013872;28;20303;-76
2023/04/04 11:21:25;;;;;;;1.77;0.90;;;9.80;62.70;;;;;;5016385;28;20291;-76
2023/04/04 11:23:50;;;;;;;2.77;1.07;;;10.10;58.50;;;;;;5013347;28;20203;-76
2023/04/04 11:26:33;;;;;;;4.73;1.20;;;10.30;59.30;;;;;;5016564;28;20196;-75
2023/04/04 11:29:00;;;;;;;1.37;0.97;;;9.60;59.40;;;;;;5016856;28;20199;-76
2023/04/04 11:31:27;;;;;;;3.23;1.20;;;9.00;59.20;;;;;;5016662;28;20654;-76
2023/04/04 11:34:13;;;;;;;0.90;0.90;;;8.90;57.90;;;;;;5016818;28;20196;-74
2023/04/04 11:36:40;;;;;;;0.90;0.90;;;8.80;59.10;;;;;;5016238;28;21305;-74
2023/04/04 11:39:21;;;;;;;2.27;0.93;;;8.30;58.50;;;;;;5016175;28;20249;-75
2023/04/04 11:42:09;;;;;;;1.53;1.00;;;8.10;60.10;;;;;;5016904;28;20316;-74
2023/04/04 11:44:40;;;;;;;1.10;1.00;;;7.80;61.90;;;;;;5020033;28;20815;-75
2023/04/04 11:47:07;;;;;;;1.30;0.93;;;8.00;64.10;;;;;;5020362;28;20279;-74
2023/04/04 11:49:36;;;;;;;0.90;0.90;;;8.60;63.70;;;;;;5020032;28;20305;-75
2023/04/04 11:52:09;;;;;;;2.73;1.10;;;8.80;60.90;;;;;;5018307;28;20199;-74
2023/04/04 11:54:37;;;;;;;1.97;1.13;;;8.60;61.10;;;;;;5020033;28;20743;-75
2023/04/04 11:57:05;;;;;;;2.43;1.40;;;8.60;63.40;;;;;;5024776;28;20294;-75
2023/04/04 11:59:30;;;;;;;4.70;1.13;;;9.60;61.90;;;;;;5020527;28;20708;-75
2023/04/04 12:01:56;;;;;;;1.23;1.00;;;9.60;58.20;;;;;;5022529;28;20191;-73
2023/04/04 12:04:24;;;;;;;2.03;1.00;;;9.60;57.00;;;;;;5024274;28;20305;-75
2023/04/04 12:06:54;;;;;;;4.67;1.27;;;9.20;57.60;;;;;;5019983;28;20244;-75
2023/04/04 12:09:22;;;;;;;1.37;1.17;;;9.20;59.10;;;;;;5020105;28;20237;-75
2023/04/04 12:11:48;;;;;;;1.57;1.07;;;9.00;58.60;;;;;;5020237;28;20216;-75
2023/04/04 12:14:18;;;;;;;4.57;1.10;;;8.70;58.30;;;;;;5018895;28;20225;-75
2023/04/04 12:16:46;;;;;;;0.80;0.80;;;8.40;60.40;;;;;;5035426;28;20207;-75
2023/04/04 12:19:12;;;;;;;1.37;0.80;;;8.70;60.90;;;;;;5014895;28;20192;-75
2023/04/04 12:21:38;;;;;;;2.13;1.27;;;9.00;59.10;;;;;;5019632;28;20677;-75
2023/04/04 12:24:05;;;;;;;2.13;1.30;;;9.30;58.70;;;;;;5019582;28;20353;-76
2023/04/04 12:26:31;;;;;;;1.13;0.80;;;9.00;58.30;;;;;;5015343;28;20329;-76
2023/04/04 12:28:58;;;;;;;1.87;1.13;;;9.20;57.60;;;;;;5019861;28;20883;-76
2023/04/04 12:31:25;;;;;;;1.30;1.20;;;9.60;57.60;;;;;;5019463;28;20713;-76
2023/04/04 12:33:52;;;;;;;1.53;1.13;;;9.70;57.90;;;;;;5020126;28;20572;-76
2023/04/04 12:36:18;;;;;;;1.00;0.90;;;10.10;55.00;;;;;;5019543;28;21048;-76
2023/04/04 12:39:01;;;;;;;1.50;1.07;;;10.50;53.50;;;;;;5019223;28;20208;-75
2023/04/04 12:41:27;;;;;;;2.13;0.93;;;10.60;53.20;;;;;;5020909;28;20209;-76
2023/04/04 12:44:08;;;;;;;2.57;1.23;;;10.00;53.20;;;;;;5019369;28;20201;-75
2023/04/04 12:46:37;;;;;;;0.97;0.80;;;8.90;55.20;;;;;;5019332;28;20230;-75
2023/04/04 12:49:04;;;;;;;1.57;1.47;;;8.80;56.60;;;;;;5017464;28;20202;-74
2023/04/04 12:51:31;;;;;;;1.30;0.83;;;9.00;56.30;;;;;;5019593;28;20219;-77